Station: Kingaroy  

  Atmospheric Gas Attenuation - ITU Rec 676-11   ----------------- dB/100km -----------------
Date Time Temp RH % AH g/m3 Dew Point Wind Direction Speed kph Gust kph Barometer mB Rainfall Since 9am 24GHz 47GHz 76GHz 122GHz 134GHz 241GHz
08/05 12:30 20 18 3.11 -5 19 30 1019.4 0 7.8 17.0 18.8 48.3 31.0 102.3
08/05 12:20 19 17 2.77 -6.6 13 15 1019.5 0 7.1 16.7 18.0 46.2 28.0 91.7
08/05 12:10 18.9 17 2.75 -6.7 19 22 1019.7 0 7.1 16.7 18.0 46.1 27.9 91.1
08/05 12:00 18.5 16 2.53 -7.8 19 28 1019.9 0 6.7 16.5 17.4 44.6 25.8 84.0
08/05 11:50 18.8 15 2.42 -8.3 17 20 1020 0 6.4 16.4 17.1 43.6 24.7 79.9
08/05 11:40 18.8 15 2.42 -8.3 17 20 1020.2 0 6.4 16.4 17.1 43.6 24.7 79.9
08/05 11:30 17.9 19 2.9 -6 17 24 1020.4 0 7.4 17.1 18.7 47.9 29.7 97.5
08/05 11:20 17.7 20 3.02 -5.5 17 20 1020.6 0 7.7 17.3 19.1 49.0 31.0 102.0
08/05 11:10 17.1 21 3.06 -5.4 19 22 1020.9 0 7.8 17.5 19.4 49.7 31.6 104.2
08/05 11:00 16.7 20 2.84 -6.3 17 26 1021.2 0 7.3 17.3 18.8 48.2 29.6 96.9
08/05 10:50 17.4 23 3.41 -3.9 15 17 1021.2 0 8.5 17.9 20.4 52.4 35.1 116.5
08/05 10:40 16.3 21 2.91 -6 17 19 1021.4 0 7.5 17.4 19.1 49.0 30.4 99.9
08/05 10:30 15.9 24 3.25 -4.6 13 19 1021.5 0 8.2 17.9 20.2 52.1 34.1 112.7
08/05 10:20 16.1 25 3.43 -3.9 17 19 1021.8 0 8.6 18.1 20.8 53.5 35.9 119.1
08/05 10:10 15.6 24 3.19 -4.9 17 20 1021.8 0 8.1 17.9 20.1 51.8 33.6 111.0
08/05 10:00 15 25 3.21 -4.8 17 24 1021.8 0 8.2 18.1 20.3 52.3 34.0 112.5
08/05 09:50 14.8 26 3.29 -4.5 15 15 1021.8 0 8.3 18.2 20.7 53.1 35.0 115.7
08/05 09:40 14.8 29 3.67 -3 15 22 1021.7 0 9.1 18.7 21.9 56.4 39.0 130.0
08/05 09:30 14.1 27 3.28 -4.6 19 24 1021.7 0 8.3 18.3 20.8 53.5 35.2 116.3
08/05 09:20 13.5 30 3.51 -3.7 19 20 1021.8 0 8.8 18.8 21.7 55.9 37.9 125.9
08/05 09:10 13.3 29 3.35 -4.3 20 24 1021.9 0 8.5 18.6 21.2 54.6 36.3 120.1
08/05 09:00 12.6 31 3.43 -4.1 20 24 1021.8 0 8.7 18.8 21.7 55.8 37.4 124.2
08/05 08:50 12.6 31 3.43 -4.1 17 19 1021.9 0 8.7 18.8 21.7 55.8 37.5 124.2
08/05 08:40 11.8 32 3.37 -4.3 19 24 1021.8 0 8.6 18.9 21.7 55.8 37.2 123.1
08/05 08:30 11.8 31 3.26 -4.8 28 33 1021.6 0 8.3 18.8 21.3 54.8 35.9 118.8
08/05 08:20 11.3 35 3.57 -3.6 26 30 1021.5 0 9.0 19.3 22.5 57.9 39.6 131.6
08/05 08:10 10.8 35 3.46 -4 26 32 1021.5 0 8.8 19.2 22.2 57.3 38.6 128.1
08/05 08:00 10.3 38 3.64 -3.4 20 26 1021.5 0 9.2 19.6 23.0 59.3 40.9 136.0
08/05 07:50 10 40 3.76 -3 20 24 1021.3 0 9.4 19.8 23.5 60.6 42.4 141.4
08/05 07:40 9.4 42 3.8 -2.8 19 22 1021.3 0 9.5 20.0 23.8 61.4 43.2 144.0
08/05 07:30 8.9 43 3.77 -3 22 28 1021.1 0 9.5 20.0 23.8 61.5 43.1 143.6
08/05 07:20 8.3 45 3.79 -2.9 20 28 1020.9 0 9.6 20.2 24.0 62.1 43.6 145.5
08/05 07:10 7.8 46 3.76 -3.1 20 22 1020.8 0 9.5 20.3 24.1 62.2 43.6 145.1
08/05 07:00 7.6 46 3.71 -3.3 24 30 1020.6 0 9.4 20.2 24.0 61.9 43.1 143.4
08/05 06:50 7.2 47 3.69 -3.3 24 26 1020.7 0 9.4 20.3 24.0 62.0 43.1 143.3
08/05 06:40 7 48 3.72 -3.2 22 24 1020.5 0 9.4 20.4 24.2 62.5 43.5 144.9
08/05 06:30 6.8 48 3.67 -3.4 20 28 1020.3 0 9.3 20.3 24.0 62.1 43.0 143.1
08/05 06:20 7 47 3.64 -3.5 20 24 1020.3 0 9.3 20.2 23.9 61.7 42.6 141.5
08/05 06:10 7.1 47 3.67 -3.4 22 28 1020.2 0 9.3 20.3 23.9 61.9 42.9 142.6
08/05 06:00 7.4 46 3.66 -3.4 22 33 1020.2 0 9.3 20.2 23.8 61.5 42.6 141.6
08/05 05:50 7 48 3.72 -3.2 20 22 1020.1 0 9.4 20.4 24.1 62.4 43.5 144.8
08/05 05:40 7.3 47 3.72 -3.2 26 28 1019.9 0 9.4 20.3 24.1 62.2 43.3 144.3
08/05 05:30 7 48 3.72 -3.2 20 26 1020 0 9.4 20.4 24.1 62.4 43.5 144.8
08/05 05:20 6.9 49 3.77 -3.1 24 32 1019.9 0 9.5 20.4 24.3 63.0 44.1 147.1
08/05 05:10 6.6 50 3.78 -3.1 19 20 1019.9 0 9.6 20.5 24.5 63.3 44.4 148.0
08/05 05:00 7.1 48 3.75 -3.1 17 22 1019.8 0 9.5 20.4 24.2 62.6 43.8 145.8
08/05 04:50 7 48 3.72 -3.2 20 20 1019.6 0 9.4 20.3 24.1 62.4 43.5 144.7
08/05 04:40 7.2 48 3.77 -3.1 22 28 1019.6 0 9.5 20.4 24.2 62.7 44.0 146.5
08/05 04:30 6.9 49 3.77 -3.1 19 28 1019.5 0 9.5 20.4 24.3 62.9 44.1 147.0
08/05 04:20 6.3 53 3.93 -2.6 19 22 1019.3 0 9.9 20.8 25.1 65.0 46.4 154.9
08/05 04:10 6.1 53 3.87 -2.7 15 17 1019.5 0 9.8 20.8 24.9 64.5 45.8 152.7
08/05 04:00 6.9 49 3.77 -3.1 15 20 1019.4 0 9.5 20.4 24.3 62.9 44.1 147.0
08/05 03:50 6.9 50 3.85 -2.8 15 17 1019 0 9.7 20.5 24.6 63.7 45.1 150.3
08/05 03:40 7.6 47 3.79 -3 13 15 1019.3 0 9.6 20.3 24.2 62.6 44.0 146.6
08/05 03:30 7.4 48 3.82 -2.9 13 19 1019.3 0 9.6 20.4 24.4 63.0 44.4 148.2
08/05 03:20 7.4 49 3.9 -2.6 17 17 1019.2 0 9.8 20.5 24.6 63.8 45.4 151.5
08/05 03:10 8.1 46 3.83 -2.8 15 17 1019 0 9.6 20.2 24.2 62.5 44.1 147.3
08/05 03:00 8.3 46 3.88 -2.6 17 24 1019.2 0 9.7 20.3 24.3 62.9 44.6 149.0
08/05 02:50 8.7 44 3.81 -2.9 22 24 1018.9 0 9.6 20.1 23.9 61.9 43.6 145.4
08/05 02:40 8.5 45 3.84 -2.7 15 19 1019 0 9.6 20.2 24.1 62.3 44.0 147.0
08/05 02:30 9 42 3.7 -3.2 11 17 1019.2 0 9.3 19.9 23.5 60.6 42.2 140.4
08/05 02:20 9.3 42 3.78 -2.9 15 15 1018.9 0 9.5 19.9 23.6 61.1 42.9 143.1
08/05 02:10 9.3 44 3.96 -2.3 20 26 1019 0 9.9 20.2 24.3 62.8 45.0 150.4
08/05 02:00 9.8 43 3.99 -2.2 24 30 1019.1 0 9.9 20.1 24.2 62.7 45.1 150.8
08/05 01:50 9.8 45 4.18 -1.6 22 26 1018.9 0 10.3 20.4 24.9 64.5 47.3 158.5
08/05 01:40 10.1 46 4.35 -1 20 22 1018.9 0 10.7 20.5 25.4 65.9 49.1 164.9
08/05 01:30 10.4 47 4.53 -0.4 30 43 1019.1 0 11.1 20.7 26.0 67.4 51.0 171.8
08/05 01:20 10.8 48 4.75 0.2 35 39 1019.2 0 11.5 21.0 26.6 69.1 53.4 180.1
08/05 01:10 10.8 51 5.04 1.1 28 33 1019.4 0 12.1 21.4 27.7 71.9 56.8 192.3
08/05 01:00 10.9 55 5.47 2.2 20 30 1019.5 0 13.0 22.0 29.2 76.1 62.0 210.4
08/05 00:50 10.8 60 5.93 3.4 22 28 1019.4 0 14.0 22.7 31.0 80.8 67.7 230.5
08/05 00:40 10.7 63 6.19 4 20 24 1019.3 0 14.6 23.2 32.0 83.5 71.1 242.2
08/05 00:30 11 62 6.21 4 20 24 1019.4 0 14.6 23.1 32.0 83.4 71.1 242.2
08/05 00:20 11.4 62 6.36 4.4 19 20 1019.3 0 14.9 23.2 32.4 84.5 72.6 247.6
08/05 00:10 11.8 62 6.53 4.8 22 26 1019.4 0 15.3 23.4 32.9 85.8 74.3 253.9
08/05 00:00 12 63 6.71 5.2 20 30 1019.5 0 15.6 23.6 33.5 87.4 76.4 261.2
07/05 23:50 12.4 62 6.77 5.3 22 26 1019.4 0 15.7 23.6 33.5 87.6 76.8 262.5
07/05 23:40 12.8 60 6.72 5.2 28 33 1019.3 0 15.6 23.4 33.2 86.6 75.8 259.0
07/05 23:30 12.7 60 6.68 5.1 22 30 1019.4 0 15.5 23.4 33.1 86.4 75.4 257.6
07/05 23:20 13.4 57 6.63 5.1 20 22 1019.4 0 15.4 23.1 32.6 85.1 74.1 253.2
07/05 23:10 13.3 57 6.59 5 19 22 1019.3 0 15.3 23.1 32.5 84.8 73.7 251.7
07/05 23:00 13 58 6.58 4.9 13 17 1019.3 0 15.3 23.2 32.6 85.0 73.8 252.2
07/05 22:50 13.6 55 6.47 4.7 15 17 1019.4 0 15.1 22.8 31.9 83.3 71.9 245.6
07/05 22:40 14 54 6.51 4.9 15 19 1019.2 0 15.1 22.8 31.9 83.3 72.0 246.1
07/05 22:30 13.6 54 6.36 4.5 11 17 1019.2 0 14.8 22.7 31.5 82.2 70.6 240.9
07/05 22:20 14.1 51 6.19 4.1 11 13 1019.2 0 14.4 22.3 30.7 80.0 68.1 232.2
07/05 22:10 14.1 51 6.19 4.1 13 19 1019.3 0 14.4 22.3 30.7 80.0 68.1 232.2
07/05 22:00 13.9 51 6.11 3.9 15 19 1019.2 0 14.3 22.2 30.5 79.4 67.3 229.4
07/05 21:50 13.7 53 6.28 4.3 15 17 1019 0 14.7 22.5 31.2 81.3 69.5 237.1
07/05 21:40 13 57 6.46 4.7 15 15 1018.9 0 15.1 23.0 32.1 83.8 72.3 246.9
07/05 21:30 12.3 58 6.3 4.3 9 13 1019.2 0 14.7 22.9 31.8 82.9 71.0 242.2
07/05 21:20 13 55 6.24 4.2 6 7 1019 0 14.6 22.6 31.3 81.6 69.6 237.5
07/05 21:10 12.6 57 6.31 4.3 6 7 1018.9 0 14.8 22.8 31.7 82.7 70.8 241.7
07/05 21:00 14.1 51 6.19 4.1 9 15 1018.8 0 14.4 22.3 30.7 80.0 68.1 232.1
07/05 20:50 14.1 52 6.31 4.4 13 15 1018.7 0 14.7 22.5 31.1 81.1 69.5 237.2
07/05 20:40 14 51 6.15 4 9 9 1018.8 0 14.4 22.3 30.6 79.7 67.7 230.7
07/05 20:30 13.5 52 6.08 3.8 6 9 1019.1 0 14.2 22.3 30.5 79.5 67.3 229.2
07/05 20:20 14.1 51 6.19 4.1 2 6 1018.8 0 14.4 22.3 30.7 80.0 68.1 232.1
07/05 20:10 14.5 50 6.22 4.2 7 9 1018.7 0 14.5 22.2 30.6 79.9 68.1 232.2
07/05 20:00 14.5 50 6.22 4.2 7 9 1018.6 0 14.5 22.2 30.6 79.9 68.1 232.2

Last Refresh: 08-May-2026 12:08:17

Bureau of Meteorology